Time;durP1;ratioP1;P1;durP2;ratioP2;P2;SDS_P1;SDS_P2;PMS_P1;PMS_P2;Temp;Humidity;BMP_temperature;BMP_pressure;BME280_temperature;BME280_humidity;BME280_pressure;Samples;Min_cycle;Max_cycle;Signal;HPM_P1;HPM_P2
2023/08/08 00:00:35;;;;;;;8.10;4.38;;;;;;;12.19;nan;101456.19;5026826;28;20029;-74
2023/08/08 00:03:00;;;;;;;5.07;3.45;;;;;;;12.22;nan;101468.34;5020083;28;20041;-74
2023/08/08 00:05:26;;;;;;;7.85;3.72;;;;;;;12.20;nan;101465.78;5018901;28;20109;-74
2023/08/08 00:07:51;;;;;;;6.80;3.45;;;;;;;12.25;nan;101466.53;5022867;28;20420;-74
2023/08/08 00:10:16;;;;;;;6.15;3.30;;;;;;;12.16;nan;101448.41;5022536;28;20389;-74
2023/08/08 00:12:42;;;;;;;11.73;3.80;;;;;;;12.23;nan;101460.50;5019606;28;20033;-74
2023/08/08 00:15:08;;;;;;;6.15;3.50;;;;;;;12.25;nan;101469.13;5016340;28;20112;-74
2023/08/08 00:17:33;;;;;;;5.53;3.03;;;;;;;12.27;nan;101471.75;5018563;28;20426;-73
2023/08/08 00:19:59;;;;;;;5.72;3.13;;;;;;;12.25;nan;101465.69;5023380;28;20025;-74
2023/08/08 00:22:24;;;;;;;9.45;4.15;;;;;;;12.34;nan;101471.56;5013154;28;20029;-74
2023/08/08 00:24:49;;;;;;;8.40;3.63;;;;;;;12.45;nan;101471.34;5024347;28;20025;-74
2023/08/08 00:27:15;;;;;;;7.70;3.35;;;;;;;12.48;nan;101470.41;5018894;28;20017;-73
2023/08/08 00:29:40;;;;;;;6.13;3.78;;;;;;;12.54;nan;101465.06;5022589;28;20022;-74
2023/08/08 00:32:06;;;;;;;6.05;3.33;;;;;;;12.61;nan;101477.97;5021978;28;20038;-73
2023/08/08 00:34:31;;;;;;;9.02;3.47;;;;;;;12.68;nan;101470.84;5022665;28;20025;-74
2023/08/08 00:36:56;;;;;;;5.05;3.50;;;;;;;12.69;nan;101467.34;5024271;28;20067;-74
2023/08/08 00:39:21;;;;;;;7.78;3.47;;;;;;;12.69;nan;101471.69;5021689;28;20061;-74
2023/08/08 00:41:47;;;;;;;6.55;3.03;;;;;;;12.67;nan;101461.28;5023786;28;20071;-74
2023/08/08 00:44:12;;;;;;;6.93;3.30;;;;;;;12.66;nan;101456.94;5021879;28;20408;-74
2023/08/08 00:46:38;;;;;;;4.07;3.10;;;;;;;12.73;nan;101457.69;5024022;28;20523;-73
2023/08/08 00:49:03;;;;;;;5.15;3.10;;;;;;;12.73;nan;101455.91;5025411;28;20477;-74
2023/08/08 00:51:29;;;;;;;5.10;3.47;;;;;;;12.77;nan;101457.56;5021101;28;20021;-74
2023/08/08 00:53:55;;;;;;;6.40;3.80;;;;;;;12.80;nan;101444.41;5026384;28;20061;-73
2023/08/08 00:56:21;;;;;;;4.78;3.20;;;;;;;12.87;nan;101450.38;5019461;28;20017;-74
2023/08/08 00:58:49;;;;;;;7.55;3.22;;;;;;;12.81;nan;101440.88;5011969;28;20037;-74
2023/08/08 01:01:14;;;;;;;6.57;3.42;;;;;;;12.82;nan;101440.00;5011864;28;20034;-74
2023/08/08 01:03:40;;;;;;;9.23;3.50;;;;;;;12.80;nan;101448.78;5018824;28;20095;-74
2023/08/08 01:06:36;;;;;;;9.43;4.50;;;;;;;12.83;nan;101446.97;5016116;28;20034;-74
2023/08/08 01:09:21;;;;;;;6.28;3.30;;;;;;;12.84;nan;101448.66;5007822;28;20053;-74
2023/08/08 01:11:48;;;;;;;7.15;3.65;;;;;;;12.87;nan;101455.59;5021193;28;20488;-74
2023/08/08 01:14:15;;;;;;;6.13;3.88;;;;;;;12.91;nan;101449.38;5017447;28;20533;-74
2023/08/08 01:16:41;;;;;;;7.53;3.63;;;;;;;12.89;nan;101449.44;5020038;28;20040;-74
2023/08/08 01:19:08;;;;;;;6.32;3.80;;;;;;;12.92;nan;101445.03;5022460;28;20061;-74
2023/08/08 01:21:37;;;;;;;6.20;3.70;;;;;;;12.99;nan;101446.59;5023317;28;20022;-74
2023/08/08 01:24:23;;;;;;;9.68;3.90;;;;;;;12.99;nan;101439.59;5021215;28;20021;-74
2023/08/08 01:26:49;;;;;;;6.07;3.30;;;;;;;12.99;nan;101436.13;5022332;28;20105;-74
2023/08/08 01:29:14;;;;;;;8.70;3.95;;;;;;;12.99;nan;101442.22;5022173;28;20446;-74
2023/08/08 01:31:39;;;;;;;9.30;3.38;;;;;;;12.94;nan;101441.47;5022061;28;20116;-74
2023/08/08 01:34:05;;;;;;;8.15;3.47;;;;;;;12.93;nan;101458.06;5019240;28;20109;-73
2023/08/08 01:36:35;;;;;;;6.22;3.75;;;;;;;12.90;nan;101447.66;5026534;28;20036;-74
2023/08/08 01:39:05;;;;;;;10.00;3.97;;;;;;;12.92;nan;101448.50;5021257;28;20065;-74
2023/08/08 01:41:32;;;;;;;9.02;3.65;;;;;;;12.89;nan;101441.59;5033449;28;20034;-74
2023/08/08 01:43:59;;;;;;;8.57;3.55;;;;;;;12.93;nan;101442.38;5025519;28;20041;-74
2023/08/08 01:46:25;;;;;;;6.82;3.88;;;;;;;12.97;nan;101437.91;5026561;28;20056;-74
2023/08/08 01:48:51;;;;;;;8.27;3.90;;;;;;;12.99;nan;101433.53;5021023;28;20385;-74
2023/08/08 01:51:16;;;;;;;6.25;3.30;;;;;;;12.99;nan;101426.53;5034150;28;20029;-74
2023/08/08 01:53:41;;;;;;;5.35;3.72;;;;;;;13.01;nan;101435.19;5019515;28;20039;-74
2023/08/08 01:56:06;;;;;;;7.75;3.45;;;;;;;12.97;nan;101430.06;5024677;28;20029;-74
2023/08/08 01:58:32;;;;;;;6.63;3.30;;;;;;;12.94;nan;101424.91;5026683;28;20077;-74
2023/08/08 02:00:57;;;;;;;8.68;3.42;;;;;;;12.83;nan;101419.94;5021907;28;20065;-74
2023/08/08 02:03:22;;;;;;;7.82;3.40;;;;;;;12.75;nan;101420.13;5023109;28;20026;-74
2023/08/08 02:05:48;;;;;;;7.55;3.60;;;;;;;12.63;nan;101412.56;5018240;28;20116;-74
2023/08/08 02:08:13;;;;;;;8.55;4.40;;;;;;;12.57;nan;101423.16;5030146;28;20283;-74
2023/08/08 02:10:38;;;;;;;9.60;4.28;;;;;;;12.48;nan;101424.22;5028737;28;20029;-74
2023/08/08 02:13:04;;;;;;;10.90;4.13;;;;;;;12.37;nan;101414.00;5028320;28;20573;-74
2023/08/08 02:15:29;;;;;;;8.00;3.95;;;;;;;12.32;nan;101415.81;5028450;28;20044;-74
2023/08/08 02:17:55;;;;;;;8.40;3.90;;;;;;;12.29;nan;101421.13;5027803;28;20040;-74
2023/08/08 02:20:20;;;;;;;7.35;3.80;;;;;;;12.31;nan;101413.25;5029220;28;20064;-73
2023/08/08 02:22:45;;;;;;;8.35;3.83;;;;;;;12.37;nan;101413.13;5028456;28;20022;-74
2023/08/08 02:25:11;;;;;;;8.80;3.83;;;;;;;12.35;nan;101415.75;5032062;28;20075;-74
2023/08/08 02:27:36;;;;;;;6.93;4.38;;;;;;;12.29;nan;101407.19;5029195;28;20049;-74
2023/08/08 02:30:02;;;;;;;7.25;3.95;;;;;;;12.31;nan;101411.50;5027798;28;20037;-74
2023/08/08 02:32:27;;;;;;;10.27;4.55;;;;;;;12.35;nan;101407.91;5028414;28;20450;-74
2023/08/08 02:34:53;;;;;;;9.93;4.22;;;;;;;12.37;nan;101395.69;5030887;28;20472;-74
2023/08/08 02:37:18;;;;;;;11.27;4.82;;;;;;;12.43;nan;101393.84;5021327;28;20070;-73
2023/08/08 02:39:44;;;;;;;8.48;4.53;;;;;;;12.48;nan;101395.44;5031475;28;20124;-74
2023/08/08 02:42:10;;;;;;;9.88;4.45;;;;;;;12.49;nan;101391.94;5026228;28;20030;-74
2023/08/08 02:44:35;;;;;;;11.80;4.75;;;;;;;12.54;nan;101389.22;5028229;28;20044;-74
2023/08/08 02:47:00;;;;;;;12.52;5.05;;;;;;;12.49;nan;101381.50;5025671;28;20474;-73
2023/08/08 02:49:25;;;;;;;10.50;4.18;;;;;;;12.57;nan;101381.31;5033880;28;20392;-74
2023/08/08 02:51:51;;;;;;;10.52;5.15;;;;;;;12.57;nan;101379.53;5021523;28;20462;-74
2023/08/08 02:54:16;;;;;;;15.02;5.30;;;;;;;12.57;nan;101383.91;5022086;28;20033;-74
2023/08/08 02:56:41;;;;;;;11.35;5.05;;;;;;;12.61;nan;101377.72;5020575;28;20037;-74
2023/08/08 02:59:07;;;;;;;8.40;4.43;;;;;;;12.50;nan;101356.19;5022029;28;20492;-74
2023/08/08 03:01:32;;;;;;;8.05;4.40;;;;;;;12.58;nan;101377.78;5028052;28;20100;-74
2023/08/08 03:03:58;;;;;;;7.32;4.57;;;;;;;12.52;nan;101377.91;5014883;28;20434;-74
2023/08/08 03:06:23;;;;;;;8.55;4.60;;;;;;;12.47;nan;101372.81;5020667;28;20029;-74
2023/08/08 03:08:48;;;;;;;12.57;5.03;;;;;;;12.41;nan;101386.00;5029983;28;20112;-74
2023/08/08 03:11:14;;;;;;;15.52;5.15;;;;;;;12.31;nan;101374.03;5021871;28;20457;-74
2023/08/08 03:13:39;;;;;;;12.55;5.18;;;;;;;12.38;nan;101388.69;5028789;28;20034;-74
2023/08/08 03:16:04;;;;;;;12.35;5.05;;;;;;;12.37;nan;101385.22;5018176;28;20108;-74
2023/08/08 03:18:30;;;;;;;12.27;5.20;;;;;;;12.43;nan;101386.00;5027092;28;20495;-74
2023/08/08 03:20:55;;;;;;;11.57;5.45;;;;;;;12.46;nan;101383.28;5018001;28;20033;-74
2023/08/08 03:23:20;;;;;;;15.20;4.93;;;;;;;12.47;nan;101379.81;5025044;28;20047;-74
2023/08/08 03:25:45;;;;;;;9.27;5.00;;;;;;;12.49;nan;101378.88;5015934;28;20029;-74
2023/08/08 03:28:11;;;;;;;12.27;5.60;;;;;;;12.47;nan;101370.19;5024375;28;20035;-74
2023/08/08 03:30:37;;;;;;;13.75;5.53;;;;;;;12.51;nan;101368.38;5019422;28;20013;-74
2023/08/08 03:33:03;;;;;;;13.70;5.20;;;;;;;12.57;nan;101376.06;5019645;28;20509;-74
2023/08/08 03:35:29;;;;;;;20.05;5.38;;;;;;;12.52;nan;101367.47;5024838;28;20033;-74
2023/08/08 03:37:54;;;;;;;15.23;5.25;;;;;;;12.56;nan;101369.13;5025206;28;20087;-74
2023/08/08 03:40:19;;;;;;;14.68;5.50;;;;;;;12.56;nan;101372.59;5022605;28;20022;-74
2023/08/08 03:42:45;;;;;;;12.77;5.38;;;;;;;12.55;nan;101381.31;5014810;28;20108;-74
2023/08/08 03:45:10;;;;;;;9.00;5.55;;;;;;;12.50;nan;101374.50;5022803;28;20026;-74
2023/08/08 03:47:36;;;;;;;13.52;5.47;;;;;;;12.40;nan;101369.47;5024517;28;20468;-73
2023/08/08 03:50:01;;;;;;;13.32;5.50;;;;;;;12.26;nan;101371.53;5024062;28;20028;-74
2023/08/08 03:52:27;;;;;;;13.65;5.72;;;;;;;12.18;nan;101369.06;5017131;28;20465;-74
2023/08/08 03:54:52;;;;;;;13.50;6.13;;;;;;;12.13;nan;101370.06;5024575;28;20025;-74
2023/08/08 03:57:18;;;;;;;14.77;5.60;;;;;;;12.08;nan;101366.69;5022517;28;20536;-73
2023/08/08 03:59:43;;;;;;;11.40;5.53;;;;;;;12.01;nan;101370.34;5024505;28;20029;-74
2023/08/08 04:02:08;;;;;;;14.93;6.18;;;;;;;11.95;nan;101372.19;5017480;28;20022;-74
2023/08/08 04:04:34;;;;;;;11.00;5.78;;;;;;;11.91;nan;101369.69;5014253;28;20026;-74
2023/08/08 04:06:59;;;;;;;13.20;6.15;;;;;;;11.88;nan;101370.59;5018660;28;20473;-74
2023/08/08 04:09:24;;;;;;;11.77;6.45;;;;;;;11.86;nan;101372.34;5022721;28;20030;-74
2023/08/08 04:11:50;;;;;;;15.07;6.10;;;;;;;11.78;nan;101353.34;5020742;28;20053;-73
2023/08/08 04:14:15;;;;;;;14.70;6.40;;;;;;;11.78;nan;101366.41;5026158;28;20101;-74
2023/08/08 04:16:40;;;;;;;13.00;5.82;;;;;;;11.74;nan;101362.16;5016602;28;20021;-74
2023/08/08 04:19:06;;;;;;;13.75;6.38;;;;;;;11.69;nan;101358.75;5026653;28;20491;-74
2023/08/08 04:21:34;;;;;;;16.40;5.70;;;;;;;11.63;nan;101356.25;5019260;28;20037;-74
2023/08/08 04:24:00;;;;;;;11.95;5.90;;;;;;;11.70;nan;101377.00;5023052;28;20100;-74
2023/08/08 04:26:26;;;;;;;16.20;7.18;;;;;;;11.66;nan;101369.25;5021519;28;20388;-73
2023/08/08 04:28:51;;;;;;;15.77;7.53;;;;;;;11.61;nan;101365.91;5025392;28;20026;-74
2023/08/08 04:31:17;;;;;;;18.42;7.10;;;;;;;11.58;nan;101358.97;5018224;28;20124;-74
2023/08/08 04:33:42;;;;;;;14.30;6.45;;;;;;;11.55;nan;101356.41;5023443;28;20030;-74
2023/08/08 04:36:07;;;;;;;12.52;6.57;;;;;;;11.62;nan;101357.16;5022822;28;20358;-74
2023/08/08 04:38:33;;;;;;;15.18;6.65;;;;;;;11.59;nan;101359.84;5023633;28;20029;-74
2023/08/08 04:40:59;;;;;;;17.27;6.32;;;;;;;11.63;nan;101366.72;5019934;28;20105;-74
2023/08/08 04:43:24;;;;;;;14.18;6.25;;;;;;;11.65;nan;101363.19;5022948;28;20238;-74
2023/08/08 04:45:50;;;;;;;12.10;6.93;;;;;;;11.70;nan;101368.31;5023987;28;20512;-74
2023/08/08 04:48:16;;;;;;;14.38;6.93;;;;;;;11.71;nan;101365.69;5023147;28;20033;-74
2023/08/08 04:50:41;;;;;;;18.45;7.38;;;;;;;11.74;nan;101372.59;5019474;28;20030;-74
2023/08/08 04:53:06;;;;;;;15.57;7.25;;;;;;;11.72;nan;101369.16;5022228;28;20542;-73
2023/08/08 04:55:32;;;;;;;17.95;6.57;;;;;;;11.75;nan;101370.84;5018618;28;20029;-74
2023/08/08 04:57:57;;;;;;;17.45;6.60;;;;;;;11.76;nan;101381.25;5016058;28;20033;-74
2023/08/08 05:00:22;;;;;;;17.52;6.95;;;;;;;11.71;nan;101370.91;5015098;28;20025;-74
2023/08/08 05:02:48;;;;;;;18.58;7.30;;;;;;;11.77;nan;101367.31;5013022;28;20040;-74
2023/08/08 05:05:13;;;;;;;16.20;7.93;;;;;;;11.73;nan;101361.25;5017971;28;20025;-74
2023/08/08 05:07:38;;;;;;;16.38;7.22;;;;;;;11.81;nan;101366.34;5013626;28;20157;-74
2023/08/08 05:10:04;;;;;;;16.30;7.78;;;;;;;11.85;nan;101375.03;5019356;28;20038;-74
2023/08/08 05:12:30;;;;;;;20.77;7.10;;;;;;;11.79;nan;101360.28;5021526;28;20025;-74
2023/08/08 05:14:55;;;;;;;15.18;7.10;;;;;;;11.84;nan;101360.22;5023410;28;20160;-73
2023/08/08 05:17:20;;;;;;;17.77;7.32;;;;;;;11.92;nan;101367.00;5019050;28;20030;-74
2023/08/08 05:19:46;;;;;;;18.33;7.05;;;;;;;11.92;nan;101367.00;5019800;28;20029;-74
2023/08/08 05:22:11;;;;;;;16.08;7.65;;;;;;;12.02;nan;101372.91;5022923;28;20021;-74
2023/08/08 05:24:36;;;;;;;17.75;7.35;;;;;;;12.05;nan;101374.59;5024067;28;20038;-73
2023/08/08 05:27:03;;;;;;;18.73;7.97;;;;;;;12.11;nan;101370.09;5019373;28;20026;-74
2023/08/08 05:29:29;;;;;;;12.75;6.70;;;;;;;12.14;nan;101367.44;5019979;28;20025;-73
2023/08/08 05:31:54;;;;;;;15.20;6.93;;;;;;;12.20;nan;101369.06;5020332;28;20390;-74
2023/08/08 05:34:19;;;;;;;17.35;8.00;;;;;;;12.23;nan;101366.38;5027570;28;20080;-74
2023/08/08 05:36:45;;;;;;;17.77;7.25;;;;;;;12.26;nan;101373.28;5019275;28;20033;-74
2023/08/08 05:39:10;;;;;;;17.80;7.00;;;;;;;12.27;nan;101368.03;5011548;28;20133;-73
2023/08/08 05:41:35;;;;;;;14.20;6.90;;;;;;;12.35;nan;101379.16;5021820;28;20029;-74
2023/08/08 05:44:01;;;;;;;13.23;6.57;;;;;;;12.38;nan;101376.47;5020300;28;20165;-74
2023/08/08 05:46:26;;;;;;;16.73;7.10;;;;;;;12.47;nan;101374.56;5019238;28;20087;-73
2023/08/08 05:48:51;;;;;;;16.95;7.03;;;;;;;12.54;nan;101376.13;5019258;28;20469;-73
2023/08/08 05:51:16;;;;;;;18.33;7.35;;;;;;;12.54;nan;101365.69;5025205;28;20040;-74
2023/08/08 05:53:42;;;;;;;18.17;7.22;;;;;;;12.65;nan;101380.25;5019208;28;20022;-73
2023/08/08 05:56:08;;;;;;;14.27;6.95;;;;;;;12.59;nan;101353.38;5023632;28;20033;-73
2023/08/08 05:58:34;;;;;;;19.40;7.72;;;;;;;12.84;nan;101369.31;5011733;28;20026;-73
2023/08/08 06:00:59;;;;;;;19.17;7.43;;;;;;;12.78;nan;101353.75;5013333;28;20476;-74
2023/08/08 06:03:24;;;;;;;17.77;6.50;;;;;;;12.95;nan;101369.03;5016034;28;20038;-73
2023/08/08 06:05:50;;;;;;;16.58;7.57;;;;;;;13.03;nan;101370.56;5020080;28;20018;-74
2023/08/08 06:08:16;;;;;;;20.50;7.38;;;;;;;13.09;nan;101385.28;5012381;28;20037;-74
2023/08/08 06:10:42;;;;;;;20.17;7.18;;;;;;;13.02;nan;101357.53;5021832;28;20025;-73
2023/08/08 06:13:07;;;;;;;12.98;6.80;;;;;;;13.19;nan;101373.66;5022849;28;20041;-74
2023/08/08 06:15:33;;;;;;;14.43;6.93;;;;;;;13.24;nan;101379.69;5022422;28;20057;-74
2023/08/08 06:17:58;;;;;;;15.38;6.50;;;;;;;13.24;nan;101379.69;5015396;28;20029;-74
2023/08/08 06:20:23;;;;;;;18.38;6.28;;;;;;;13.35;nan;101382.88;5022182;28;20461;-73
2023/08/08 06:22:49;;;;;;;15.40;6.50;;;;;;;13.43;nan;101382.66;5018674;28;20413;-73
2023/08/08 06:25:14;;;;;;;17.65;6.03;;;;;;;13.47;nan;101380.81;5020710;28;20465;-74
2023/08/08 06:27:39;;;;;;;13.98;6.22;;;;;;;13.45;nan;101382.63;5022427;28;20539;-74
2023/08/08 06:30:05;;;;;;;14.95;6.35;;;;;;;13.49;nan;101384.28;5024727;28;20053;-73
2023/08/08 06:32:31;;;;;;;15.82;6.18;;;;;;;13.56;nan;101383.19;5025873;28;20057;-73
2023/08/08 06:34:56;;;;;;;16.88;6.38;;;;;;;13.73;nan;101391.47;5022940;28;20026;-74
2023/08/08 06:37:21;;;;;;;12.77;5.80;;;;;;;13.89;nan;101385.78;5021761;28;20030;-73
2023/08/08 06:39:47;;;;;;;17.42;6.65;;;;;;;13.99;nan;101377.59;5028056;28;20389;-73
2023/08/08 06:42:12;;;;;;;13.77;5.18;;;;;;;14.01;nan;101377.56;5019417;28;20022;-74
2023/08/08 06:44:43;;;;;;;13.75;7.00;;;;;;;14.13;nan;101381.59;5015218;28;20021;-74
2023/08/08 06:47:08;;;;;;;13.10;6.70;;;;;;;14.20;nan;101376.13;5012987;28;20528;-73
2023/08/08 06:49:34;;;;;;;15.10;6.03;;;;;;;14.37;nan;101382.63;5022024;28;20017;-73
2023/08/08 06:51:59;;;;;;;16.85;6.53;;;;;;;14.48;nan;101370.88;5016929;28;20038;-74
2023/08/08 06:54:24;;;;;;;13.55;5.32;;;;;;;14.63;nan;101382.69;5020958;28;20033;-73
2023/08/08 06:56:49;;;;;;;13.73;5.80;;;;;;;14.69;nan;101392.16;5023190;28;20033;-74
2023/08/08 06:59:15;;;;;;;13.32;5.38;;;;;;;14.78;nan;101390.97;5011086;28;20041;-73
2023/08/08 07:01:43;;;;;;;12.65;5.35;;;;;;;14.90;nan;101391.44;5023414;28;20462;-74
2023/08/08 07:04:09;;;;;;;10.02;4.72;;;;;;;14.97;nan;101386.84;5014963;28;20037;-74
2023/08/08 07:06:34;;;;;;;11.38;4.43;;;;;;;15.12;nan;101386.34;5013898;28;20026;-74
2023/08/08 07:08:59;;;;;;;14.02;4.65;;;;;;;15.34;nan;101383.00;5017233;28;20393;-74
2023/08/08 07:11:24;;;;;;;10.48;4.78;;;;;;;15.45;nan;101375.59;5020523;28;20112;-74
2023/08/08 07:13:50;;;;;;;9.80;4.13;;;;;;;15.56;nan;101381.31;5028200;28;20029;-74
2023/08/08 07:16:15;;;;;;;11.05;4.72;;;;;;;15.57;nan;101382.19;5014196;28;20038;-74
2023/08/08 07:18:40;;;;;;;10.30;4.20;;;;;;;15.75;nan;101385.94;5020208;28;20030;-75
2023/08/08 07:21:06;;;;;;;8.60;3.95;;;;;;;15.88;nan;101379.31;5016393;28;20038;-74
2023/08/08 07:23:31;;;;;;;9.73;3.83;;;;;;;15.88;nan;101371.44;5020899;28;20041;-74
2023/08/08 07:25:56;;;;;;;11.10;4.40;;;;;;;15.88;nan;101376.69;5020756;28;20088;-73
2023/08/08 07:28:22;;;;;;;9.30;3.88;;;;;;;15.78;nan;101375.31;5015690;28;20049;-74
2023/08/08 07:30:47;;;;;;;10.15;4.18;;;;;;;15.76;nan;101378.03;5026520;28;20476;-74
2023/08/08 07:33:13;;;;;;;7.50;4.22;;;;;;;15.76;nan;101379.75;5023223;28;20125;-74
2023/08/08 07:35:39;;;;;;;9.18;3.85;;;;;;;15.68;nan;101380.06;5007873;28;20018;-74
2023/08/08 07:38:04;;;;;;;11.18;3.85;;;;;;;15.72;nan;101381.66;5013344;28;20041;-74
2023/08/08 07:40:29;;;;;;;11.40;5.00;;;;;;;15.91;nan;101384.47;5024604;28;20025;-75
2023/08/08 07:42:54;;;;;;;11.10;4.10;;;;;;;16.06;nan;101381.28;5018054;28;20068;-74
2023/08/08 07:45:20;;;;;;;8.98;4.03;;;;;;;16.20;nan;101372.84;5022859;28;20608;-74
2023/08/08 07:47:46;;;;;;;11.38;3.97;;;;;;;16.24;nan;101381.47;5024452;28;20098;-75
2023/08/08 07:50:12;;;;;;;9.70;4.28;;;;;;;16.25;nan;101380.56;5017193;28;20030;-75
2023/08/08 07:52:38;;;;;;;9.27;3.80;;;;;;;16.31;nan;101386.44;5023644;28;20041;-75
2023/08/08 07:55:04;;;;;;;5.93;3.90;;;;;;;16.37;nan;101378.31;5018769;28;20017;-74
2023/08/08 07:57:31;;;;;;;9.82;3.90;;;;;;;16.48;nan;101375.28;5015198;28;20093;-74
2023/08/08 07:59:57;;;;;;;6.90;3.83;;;;;;;16.65;nan;101379.88;5013083;28;20040;-75
2023/08/08 08:02:22;;;;;;;8.80;3.92;;;;;;;16.80;nan;101376.63;5020883;28;20029;-74
2023/08/08 08:04:47;;;;;;;5.03;3.13;;;;;;;16.91;nan;101388.53;5019112;28;20111;-75
2023/08/08 08:07:13;;;;;;;7.05;3.67;;;;;;;16.85;nan;101387.00;5019454;28;20465;-74
2023/08/08 08:09:38;;;;;;;6.95;3.17;;;;;;;16.81;nan;101380.13;5013684;28;20183;-75
2023/08/08 08:12:04;;;;;;;9.98;3.58;;;;;;;16.84;nan;101387.91;5016779;28;20385;-77
2023/08/08 08:14:29;;;;;;;7.00;3.63;;;;;;;16.76;nan;101384.72;5022204;28;20037;-76
2023/08/08 08:16:54;;;;;;;7.43;3.38;;;;;;;16.71;nan;101378.75;5012831;28;20041;-76
2023/08/08 08:19:20;;;;;;;8.52;3.83;;;;;;;16.66;nan;101371.03;5010899;28;20481;-76
2023/08/08 08:21:45;;;;;;;9.52;3.95;;;;;;;16.77;nan;101383.78;5012769;28;20022;-77
2023/08/08 08:24:11;;;;;;;8.27;4.10;;;;;;;17.01;nan;101385.44;5019501;28;20509;-76
2023/08/08 08:26:36;;;;;;;6.60;3.97;;;;;;;17.28;nan;101382.56;5022349;28;20030;-78
2023/08/08 08:29:02;;;;;;;9.98;3.80;;;;;;;17.67;nan;101381.75;5018847;28;20115;-75
2023/08/08 08:31:27;;;;;;;6.85;3.50;;;;;;;17.94;nan;101383.16;5013691;28;20124;-76
2023/08/08 08:33:55;;;;;;;9.15;3.65;;;;;;;17.99;nan;101383.81;5028032;28;20017;-76
2023/08/08 08:36:21;;;;;;;9.50;3.40;;;;;;;17.85;nan;101359.81;5016071;28;20385;-79
2023/08/08 08:38:46;;;;;;;6.50;3.08;;;;;;;17.94;nan;101383.16;5015969;28;20030;-76
2023/08/08 08:41:18;;;;;;;9.23;3.15;;;;;;;17.78;nan;101376.84;5018929;28;20378;-77
2023/08/08 08:43:43;;;;;;;7.22;3.30;;;;;;;17.70;nan;101368.41;5019368;28;20030;-76
2023/08/08 08:46:11;;;;;;;11.27;3.45;;;;;;;17.73;nan;101376.19;5025531;28;20037;-76
2023/08/08 08:48:36;;;;;;;6.97;3.58;;;;;;;17.79;nan;101378.59;5016967;28;20048;-78
2023/08/08 08:51:02;;;;;;;8.75;3.33;;;;;;;17.92;nan;101386.78;5023248;28;20473;-76
2023/08/08 08:53:28;;;;;;;5.22;2.70;;;;;;;18.05;nan;101374.78;5023169;28;20461;-76
2023/08/08 08:55:56;;;;;;;6.63;2.85;;;;;;;18.23;nan;101370.41;5022695;28;20028;-75
2023/08/08 08:58:24;;;;;;;5.53;2.95;;;;;;;18.36;nan;101384.72;5015622;28;20041;-77
2023/08/08 09:00:51;;;;;;;7.15;3.35;;;;;;;18.21;nan;101377.53;5021132;28;20497;-76
2023/08/08 09:03:17;;;;;;;6.68;3.00;;;;;;;18.17;nan;101390.00;5003361;28;20037;-76
2023/08/08 09:05:44;;;;;;;7.55;2.88;;;;;;;18.00;nan;101398.72;5016692;28;20032;-76
2023/08/08 09:08:11;;;;;;;11.70;2.72;;;;;;;17.77;nan;101398.88;5024102;28;20524;-76
2023/08/08 09:10:37;;;;;;;6.05;2.10;;;;;;;17.60;nan;101380.31;5015093;28;20421;-76
2023/08/08 09:13:03;;;;;;;5.13;2.72;;;;;;;17.51;nan;101400.84;5021804;28;20029;-76
2023/08/08 09:15:32;;;;;;;10.07;2.83;;;;;;;17.44;nan;101396.78;5016347;28;20061;-75
2023/08/08 09:17:57;;;;;;;8.43;3.25;;;;;;;17.35;nan;101391.91;5022606;28;20030;-76
2023/08/08 09:20:22;;;;;;;7.88;2.70;;;;;;;17.32;nan;101402.56;5020916;28;20036;-76
2023/08/08 09:22:48;;;;;;;6.47;2.83;;;;;;;17.29;nan;101405.34;5021700;28;20540;-75
2023/08/08 09:25:13;;;;;;;5.03;2.53;;;;;;;17.39;nan;101395.25;5011396;28;20033;-76
2023/08/08 09:27:41;;;;;;;5.38;2.47;;;;;;;17.47;nan;101382.63;5022947;28;20037;-76
2023/08/08 09:30:08;;;;;;;4.40;2.88;;;;;;;17.73;nan;101392.03;5021602;28;20049;-76
2023/08/08 09:32:34;;;;;;;6.90;2.83;;;;;;;17.85;nan;101394.13;5017175;28;20730;-76
2023/08/08 09:34:59;;;;;;;8.40;3.15;;;;;;;17.98;nan;101397.94;5016536;28;20030;-76
2023/08/08 09:37:25;;;;;;;5.78;3.35;;;;;;;18.05;nan;101374.78;5010960;28;20128;-76
2023/08/08 09:39:59;;;;;;;7.18;3.30;;;;;;;18.57;nan;101398.69;5017379;28;20496;-76
2023/08/08 09:42:28;;;;;;;8.80;3.08;;;;;;;18.89;nan;101389.22;5012791;28;20034;-76
2023/08/08 09:44:56;;;;;;;9.20;3.63;;;;;;;19.07;nan;101399.81;5013162;28;20034;-76
2023/08/08 09:47:22;;;;;;;4.88;3.13;;;;;;;19.01;nan;101379.00;5018745;28;20116;-76
2023/08/08 09:49:48;;;;;;;5.03;2.90;;;;;;;19.01;nan;101400.97;5016819;28;20116;-76
2023/08/08 09:52:14;;;;;;;5.90;3.17;;;;;;;19.08;nan;101397.09;5014362;28;20109;-76
2023/08/08 09:54:40;;;;;;;8.65;2.90;;;;;;;19.11;nan;101390.81;5012799;28;20547;-75
2023/08/08 09:57:06;;;;;;;8.90;3.10;;;;;;;19.03;nan;101400.88;5018642;28;20034;-75
2023/08/08 09:59:32;;;;;;;4.53;2.95;;;;;;;19.27;nan;101385.59;5015082;28;20033;-76
2023/08/08 10:01:58;;;;;;;5.15;2.80;;;;;;;19.25;nan;101396.22;5021002;28;20084;-76
2023/08/08 10:04:24;;;;;;;5.75;2.42;;;;;;;19.33;nan;101390.56;5018554;28;20044;-76
2023/08/08 10:06:49;;;;;;;8.90;2.45;;;;;;;19.46;nan;101396.94;5018926;28;20113;-76
2023/08/08 10:09:16;;;;;;;5.15;2.22;;;;;;;19.55;nan;101400.88;5022532;28;20426;-76
2023/08/08 10:11:44;;;;;;;6.88;2.22;;;;;;;19.49;nan;101390.63;5018788;28;20022;-76
2023/08/08 10:14:11;;;;;;;5.68;2.42;;;;;;;19.65;nan;101391.56;5029206;28;20057;-77
2023/08/08 10:16:37;;;;;;;3.55;2.03;;;;;;;19.74;nan;101390.22;5016479;28;20029;-76
2023/08/08 10:19:05;;;;;;;5.82;2.50;;;;;;;19.86;nan;101387.78;5015524;28;20044;-76
2023/08/08 10:21:34;;;;;;;6.43;2.53;;;;;;;20.00;nan;101392.31;5015118;28;20036;-76
2023/08/08 10:24:08;;;;;;;6.13;2.47;;;;;;;20.13;nan;101392.50;5024515;28;20044;-76
2023/08/08 10:26:50;;;;;;;7.32;2.65;;;;;;;20.33;nan;101386.97;5013959;28;20022;-76
2023/08/08 10:29:18;;;;;;;5.38;2.45;;;;;;;20.64;nan;101381.78;5021654;28;20742;-76
2023/08/08 10:31:57;;;;;;;6.97;2.58;;;;;;;20.64;nan;101387.94;5022955;28;20049;-76
2023/08/08 10:34:36;;;;;;;3.67;2.05;;;;;;;20.73;nan;101390.06;5019635;28;20037;-76
2023/08/08 10:37:04;;;;;;;3.28;2.05;;;;;;;20.65;nan;101392.28;5020694;28;20029;-76
2023/08/08 10:39:31;;;;;;;4.90;1.90;;;;;;;20.18;nan;101397.56;5015827;28;20037;-75
2023/08/08 10:42:02;;;;;;;4.68;2.13;;;;;;;19.69;nan;101393.13;5024319;28;20076;-76
2023/08/08 10:44:28;;;;;;;3.65;2.20;;;;;;;19.00;nan;101374.63;5030246;28;20120;-75
2023/08/08 10:46:54;;;;;;;6.20;2.22;;;;;;;18.53;nan;101398.91;5016859;28;20101;-76
2023/08/08 10:49:20;;;;;;;4.93;2.30;;;;;;;18.02;nan;101404.78;5026152;28;20042;-75
2023/08/08 10:51:48;;;;;;;3.50;2.35;;;;;;;17.57;nan;101412.06;5023262;28;20032;-76
2023/08/08 10:54:20;;;;;;;5.72;3.05;;;;;;;17.17;nan;101405.88;5019955;28;20389;-75
2023/08/08 10:56:53;;;;;;;3.88;2.63;;;;;;;17.25;nan;101411.66;5016279;28;20120;-76
2023/08/08 10:59:22;;;;;;;5.93;2.88;;;;;;;17.57;nan;101401.53;5021955;28;20477;-75
2023/08/08 11:01:51;;;;;;;4.43;2.90;;;;;;;18.15;nan;101388.41;5021590;28;20033;-76
2023/08/08 11:04:23;;;;;;;7.45;3.05;;;;;;;18.65;nan;101382.47;5012748;28;20096;-76
2023/08/08 11:06:49;;;;;;;4.97;2.67;;;;;;;19.29;nan;101384.59;5017475;28;20028;-76
2023/08/08 11:09:16;;;;;;;3.33;2.13;;;;;;;19.96;nan;101382.00;5026918;28;20477;-76
2023/08/08 11:11:43;;;;;;;4.88;2.25;;;;;;;20.34;nan;101371.94;5015432;28;20819;-76
2023/08/08 11:14:20;;;;;;;8.75;2.10;;;;;;;20.38;nan;101370.84;5029006;28;20034;-76
2023/08/08 11:16:47;;;;;;;5.25;2.38;;;;;;;20.22;nan;101348.81;5013319;28;20148;-77
2023/08/08 11:19:13;;;;;;;3.20;1.85;;;;;;;20.44;nan;101367.00;5028307;28;20061;-76
2023/08/08 11:21:44;;;;;;;3.80;2.35;;;;;;;20.90;nan;101353.78;5014744;28;20050;-76
2023/08/08 11:24:10;;;;;;;7.85;2.30;;;;;;;21.51;nan;101350.13;5027163;28;20032;-77
2023/08/08 11:26:36;;;;;;;6.25;2.05;;;;;;;21.76;nan;101365.38;5021605;28;20026;-76
2023/08/08 11:29:04;;;;;;;4.75;2.22;;;;;;;21.71;nan;101354.19;5023152;28;20044;-76
2023/08/08 11:31:30;;;;;;;3.83;1.90;;;;;;;21.69;nan;101366.72;5021404;28;20046;-76
2023/08/08 11:33:56;;;;;;;3.55;1.98;;;;;;;21.72;nan;101372.69;5029557;28;20438;-76